Crew Green, United Kingdom
Current Conditions -  °F | °C
As of 12:50 PM on Thursday 18 Dec 2014 (Local Time) from EGOS Reporting Station
Drizzle Drizzle  
Wind Chill: 55°   Ceiling: 1600
Heat Index: 55°   Visibility: 4mi
Dew Point: 52°   Wind: 24mph
Humidity: 88%   Direction: 230°SW
Pressure: 29.68"   Gusts: NA
Location:  52.73°N, 3°W
Report Text: EGOS 181250Z 23021KT 6000 -DZ FEW012 OVC016 13/11 Q1005 WHT TEMPO 9999 NSW WHT
Loading
Personal Weather Stations






























Interactive Weather Map New forecast layout! Learn more

10-Day Weather Forecast

Advertisements
Track Severe Weather on mobile